Time;durP1;ratioP1;P1;durP2;ratioP2;P2;SDS_P1;SDS_P2;PMS_P1;PMS_P2;Temp;Humidity;BMP_temperature;BMP_pressure;BME280_temperature;BME280_humidity;BME280_pressure;Samples;Min_cycle;Max_cycle;Signal;HPM_P1;HPM_P2
2023/09/01 00:01:42;;;;;;;6.45;2.00;;;;;;;11.64;100.00;100855.47;7392497;19;20368;-53
2023/09/01 00:04:12;;;;;;;5.07;2.20;;;;;;;11.68;100.00;100852.19;7371900;19;20355;-54
2023/09/01 00:06:44;;;;;;;4.60;1.80;;;;;;;11.68;100.00;100848.72;7391799;19;20357;-50
2023/09/01 00:09:14;;;;;;;5.00;1.60;;;;;;;11.70;100.00;100852.28;7371547;19;20341;-52
2023/09/01 00:11:43;;;;;;;5.32;1.90;;;;;;;11.73;100.00;100861.03;7392496;19;20448;-53
2023/09/01 00:14:13;;;;;;;7.50;2.90;;;;;;;11.74;100.00;100857.59;7371456;19;20352;-50
2023/09/01 00:16:40;;;;;;;4.60;2.10;;;;;;;11.77;100.00;100862.03;7391329;19;20356;-47
2023/09/01 00:19:10;;;;;;;7.38;2.63;;;;;;;11.79;100.00;100862.94;7371009;19;20369;-50
2023/09/01 00:21:39;;;;;;;4.47;1.95;;;;;;;11.83;100.00;100869.13;7391877;19;20440;-51
2023/09/01 00:24:12;;;;;;;4.73;2.10;;;;;;;11.83;100.00;100869.13;7369108;19;20386;-53
2023/09/01 00:26:41;;;;;;;3.65;1.98;;;;;;;11.83;100.00;100866.53;7391635;19;20378;-50
2023/09/01 00:29:11;;;;;;;6.50;2.25;;;;;;;11.85;100.00;100875.25;7370567;19;20412;-52
2023/09/01 00:31:40;;;;;;;5.03;1.80;;;;;;;11.85;100.00;100875.25;7391022;19;20371;-49
2023/09/01 00:34:10;;;;;;;6.30;1.95;;;;;;;11.86;100.00;100871.84;7370275;19;20341;-52
2023/09/01 00:36:40;;;;;;;6.60;2.27;;;;;;;11.88;100.00;100872.75;7390652;19;20353;-54
2023/09/01 00:39:12;;;;;;;7.77;2.00;;;;;;;11.89;100.00;100874.53;7370550;19;20397;-53
2023/09/01 00:41:42;;;;;;;5.95;2.15;;;;;;;11.92;100.00;100877.25;7391979;19;20368;-52
2023/09/01 00:44:13;;;;;;;7.32;2.40;;;;;;;11.95;100.00;100885.09;7370268;19;20365;-52
2023/09/01 00:46:46;;;;;;;6.93;2.10;;;;;;;12.01;100.00;100881.88;7390912;19;20349;-50
2023/09/01 00:49:18;;;;;;;6.05;2.10;;;;;;;11.99;100.00;100884.41;7369347;19;20353;-50
2023/09/01 00:51:48;;;;;;;4.28;2.00;;;;;;;12.00;100.00;100882.72;7367053;19;20368;-53
2023/09/01 00:54:21;;;;;;;6.47;2.05;;;;;;;12.01;100.00;100882.75;7390494;19;20365;-49
2023/09/01 00:56:51;;;;;;;6.90;2.15;;;;;;;12.01;100.00;100882.75;7366892;19;20361;-52
2023/09/01 00:59:20;;;;;;;5.07;2.30;;;;;;;11.99;100.00;100881.81;7390492;19;20427;-49
2023/09/01 01:01:50;;;;;;;12.23;2.30;;;;;;;11.99;100.00;100881.81;7366741;19;20445;-54
2023/09/01 01:04:21;;;;;;;6.70;2.60;;;;;;;11.99;100.00;100878.34;7389905;19;20360;-52
2023/09/01 01:06:55;;;;;;;5.67;2.13;;;;;;;12.01;100.00;100869.81;7367698;19;20823;-52
2023/09/01 01:09:39;;;;;;;8.10;2.10;;;;;;;11.98;100.00;100872.31;7390306;19;20353;-54
2023/09/01 01:12:24;;;;;;;6.32;2.30;;;;;;;11.95;100.00;100873.91;7368291;19;21174;-49
2023/09/01 01:14:55;;;;;;;3.75;2.20;;;;;;;11.93;100.00;100875.50;7390994;19;20366;-51
2023/09/01 01:17:25;;;;;;;5.00;1.90;;;;;;;11.90;100.00;100871.13;7365939;19;20324;-51
2023/09/01 01:19:57;;;;;;;7.38;2.15;;;;;;;11.90;100.00;100871.13;7390933;19;20924;-52
2023/09/01 01:22:41;;;;;;;6.78;2.25;;;;;;;11.88;100.00;100859.84;7365854;19;20348;-50
2023/09/01 01:25:14;;;;;;;8.98;2.50;;;;;;;11.89;100.00;100866.75;7389149;19;20376;-53
2023/09/01 01:27:45;;;;;;;9.35;2.30;;;;;;;11.83;100.00;100869.13;7366134;19;20321;-52
2023/09/01 01:30:16;;;;;;;9.25;2.65;;;;;;;11.80;100.00;100876.78;7390370;19;20348;-53
2023/09/01 01:32:46;;;;;;;11.52;2.60;;;;;;;11.80;100.00;100885.38;7366474;19;20309;-52
2023/09/01 01:35:20;;;;;;;8.63;2.05;;;;;;;11.75;100.00;100874.00;7389084;19;20367;-54
2023/09/01 01:37:55;;;;;;;5.70;2.10;;;;;;;11.77;100.00;100879.22;7365972;19;20321;-51
2023/09/01 01:40:30;;;;;;;6.57;2.03;;;;;;;11.75;100.00;100874.00;7389677;19;20380;-52
2023/09/01 01:43:01;;;;;;;7.80;2.70;;;;;;;11.74;100.00;100878.28;7365671;19;20313;-52
2023/09/01 01:45:31;;;;;;;8.75;3.28;;;;;;;11.75;100.00;100869.72;7387203;19;20364;-53
2023/09/01 01:48:01;;;;;;;4.75;2.20;;;;;;;11.71;100.00;100859.19;7366147;19;20325;-51
2023/09/01 01:50:32;;;;;;;6.70;2.40;;;;;;;11.67;100.00;100865.06;7387816;19;20360;-49
2023/09/01 01:53:02;;;;;;;8.33;2.00;;;;;;;11.65;100.00;100871.88;7364751;19;20327;-54
2023/09/01 01:55:34;;;;;;;8.45;3.50;;;;;;;11.66;100.00;100876.22;7382241;19;20736;-53
2023/09/01 01:58:05;;;;;;;6.95;2.67;;;;;;;11.59;100.00;100888.03;7364876;19;20948;-50
2023/09/01 02:00:35;;;;;;;6.80;2.45;;;;;;;11.57;100.00;100887.06;7388316;19;20372;-51
2023/09/01 02:03:05;;;;;;;6.57;2.40;;;;;;;11.57;100.00;100887.06;7372207;19;20716;-52
2023/09/01 02:05:35;;;;;;;5.43;2.30;;;;;;;11.57;100.00;100879.31;7394322;19;20715;-54
2023/09/01 02:08:05;;;;;;;6.65;2.60;;;;;;;11.52;100.00;100880.84;7371552;19;20322;-48
2023/09/01 02:10:38;;;;;;;8.05;2.88;;;;;;;11.50;100.00;100887.66;7394850;19;20375;-54
2023/09/01 02:13:07;;;;;;;7.30;2.88;;;;;;;11.44;100.00;100876.25;7372009;19;20407;-52
2023/09/01 02:15:37;;;;;;;5.85;2.63;;;;;;;11.41;100.00;100885.56;7394244;19;20352;-51
2023/09/01 02:18:08;;;;;;;7.67;2.80;;;;;;;11.37;100.00;100876.81;7371904;19;20347;-54
2023/09/01 02:20:39;;;;;;;7.20;2.50;;;;;;;11.34;100.00;100884.47;7394392;19;20432;-51
2023/09/01 02:23:08;;;;;;;5.60;3.03;;;;;;;11.32;100.00;100879.22;7371762;19;20420;-52
2023/09/01 02:25:41;;;;;;;6.18;2.67;;;;;;;11.30;100.00;100880.00;7393817;19;20352;-48
2023/09/01 02:28:10;;;;;;;5.55;2.50;;;;;;;11.29;100.00;100879.09;7371822;19;20403;-52
2023/09/01 02:30:40;;;;;;;6.78;2.50;;;;;;;11.26;100.00;100878.09;7393761;19;20378;-49
2023/09/01 02:33:10;;;;;;;8.00;2.75;;;;;;;11.29;100.00;100883.41;7370988;19;20405;-54
2023/09/01 02:35:44;;;;;;;9.07;2.90;;;;;;;11.30;100.00;100885.16;7393700;19;20892;-52
2023/09/01 02:38:14;;;;;;;7.63;3.30;;;;;;;11.30;100.00;100880.88;7370895;19;20346;-51
2023/09/01 02:40:47;;;;;;;8.50;2.75;;;;;;;11.31;100.00;100886.91;7394475;19;20376;-51
2023/09/01 02:43:16;;;;;;;4.60;2.90;;;;;;;11.31;100.00;100880.06;7371387;19;20340;-50
2023/09/01 02:45:46;;;;;;;6.55;2.90;;;;;;;11.30;100.00;100880.88;7393922;19;20367;-51
2023/09/01 02:48:16;;;;;;;7.85;3.33;;;;;;;11.30;100.00;100880.00;7371373;19;20340;-54
2023/09/01 02:50:45;;;;;;;6.78;3.10;;;;;;;11.31;100.00;100876.56;7393906;19;20380;-53
2023/09/01 02:53:15;;;;;;;7.90;3.10;;;;;;;11.30;100.00;100877.41;7371739;19;20735;-50
2023/09/01 02:55:47;;;;;;;8.52;3.00;;;;;;;11.32;100.00;100883.50;7395270;19;20340;-48
2023/09/01 02:58:17;;;;;;;6.75;3.20;;;;;;;11.31;100.00;100881.75;7372072;19;20391;-53
2023/09/01 03:00:47;;;;;;;9.07;3.65;;;;;;;11.31;100.00;100881.75;7394080;19;20368;-53
2023/09/01 03:03:16;;;;;;;8.52;2.90;;;;;;;11.31;100.00;100884.31;7368237;19;20893;-52
2023/09/01 03:05:46;;;;;;;6.28;3.10;;;;;;;11.29;100.00;100891.16;7395671;19;20399;-51
2023/09/01 03:08:15;;;;;;;6.72;3.00;;;;;;;11.27;100.00;100885.03;7370166;19;20329;-55
2023/09/01 03:10:48;;;;;;;7.28;3.10;;;;;;;11.26;100.00;100891.91;7393584;19;20382;-54
2023/09/01 03:13:17;;;;;;;8.15;2.95;;;;;;;11.23;100.00;100888.31;7370042;19;21094;-53
2023/09/01 03:15:47;;;;;;;10.13;3.53;;;;;;;11.21;100.00;100886.53;7395559;19;20358;-49
2023/09/01 03:18:16;;;;;;;7.20;3.10;;;;;;;11.20;100.00;100889.97;7370416;19;20775;-49
2023/09/01 03:20:48;;;;;;;8.75;3.40;;;;;;;11.19;100.00;100898.50;7393603;19;20376;-53
2023/09/01 03:23:17;;;;;;;9.13;3.63;;;;;;;11.19;100.00;100901.06;7368380;19;20341;-50
2023/09/01 03:25:57;;;;;;;6.90;3.05;;;;;;;11.13;100.00;100897.38;7394422;19;20377;-54
2023/09/01 03:28:27;;;;;;;7.25;3.20;;;;;;;11.10;100.00;100903.28;7369609;19;20874;-52
2023/09/01 03:30:56;;;;;;;9.48;3.78;;;;;;;11.03;100.00;100898.69;7392854;19;20373;-52
2023/09/01 03:33:27;;;;;;;8.30;3.30;;;;;;;11.01;100.00;100902.88;7368818;19;20412;-54
2023/09/01 03:35:56;;;;;;;12.07;5.32;;;;;;;11.04;100.00;100903.91;7392467;19;20381;-53
2023/09/01 03:38:26;;;;;;;9.65;3.47;;;;;;;10.97;100.00;100901.88;7368167;19;20408;-51
2023/09/01 03:40:58;;;;;;;12.10;5.22;;;;;;;11.02;100.00;100902.97;7392416;19;20364;-53
2023/09/01 03:43:28;;;;;;;7.50;3.40;;;;;;;10.93;100.00;100908.63;7367511;19;20336;-52
2023/09/01 03:45:57;;;;;;;12.20;3.70;;;;;;;10.90;100.00;100913.66;7392132;19;20353;-54
2023/09/01 03:48:27;;;;;;;9.87;3.50;;;;;;;10.90;100.00;100905.03;7368971;19;21189;-49
2023/09/01 03:51:10;;;;;;;7.70;3.17;;;;;;;10.86;100.00;100905.72;7393255;19;20440;-52
2023/09/01 03:53:40;;;;;;;7.00;3.30;;;;;;;10.81;100.00;100900.34;7369502;19;20329;-51
2023/09/01 03:56:15;;;;;;;9.15;3.65;;;;;;;10.81;100.00;100895.19;7391887;19;20361;-54
2023/09/01 03:58:45;;;;;;;8.60;3.95;;;;;;;10.73;100.00;100889.72;7369120;19;20689;-54
2023/09/01 04:01:15;;;;;;;5.75;3.13;;;;;;;10.70;100.00;100893.81;7393019;19;20378;-50
2023/09/01 04:03:45;;;;;;;8.18;3.58;;;;;;;10.67;100.00;100898.06;7367768;19;20354;-53
2023/09/01 04:06:15;;;;;;;7.28;3.30;;;;;;;10.63;100.00;100887.53;7392233;19;20360;-54
2023/09/01 04:08:45;;;;;;;7.88;3.60;;;;;;;10.63;100.00;100888.44;7368120;19;20329;-53
2023/09/01 04:11:17;;;;;;;9.40;3.60;;;;;;;10.63;100.00;100885.84;7392347;19;20361;-50
2023/09/01 04:13:47;;;;;;;9.63;3.60;;;;;;;10.59;100.00;100894.25;7368795;19;20376;-51
2023/09/01 04:16:16;;;;;;;8.35;3.60;;;;;;;10.56;100.00;100876.06;7391597;19;20789;-53
2023/09/01 04:18:47;;;;;;;6.32;3.33;;;;;;;10.53;100.00;100883.66;7368183;19;20795;-51
2023/09/01 04:21:17;;;;;;;10.23;3.78;;;;;;;10.58;100.00;100891.59;7392346;19;20368;-53
2023/09/01 04:23:46;;;;;;;7.05;3.10;;;;;;;10.55;100.00;100892.34;7366937;19;20411;-53
2023/09/01 04:26:19;;;;;;;10.20;3.50;;;;;;;10.57;100.00;100892.44;7389226;19;20463;-50
2023/09/01 04:28:48;;;;;;;7.93;3.50;;;;;;;10.61;100.00;100891.75;7368383;19;20433;-49
2023/09/01 04:31:19;;;;;;;8.93;3.38;;;;;;;10.59;100.00;100898.53;7391290;19;20372;-51
2023/09/01 04:33:48;;;;;;;7.45;3.00;;;;;;;10.61;100.00;100892.63;7367490;19;20404;-54
2023/09/01 04:36:18;;;;;;;10.93;3.70;;;;;;;10.64;100.00;100897.94;7391829;19;20443;-52
2023/09/01 04:38:50;;;;;;;11.97;3.70;;;;;;;10.67;100.00;100897.19;7367729;19;20337;-51
2023/09/01 04:41:22;;;;;;;8.80;3.40;;;;;;;10.65;100.00;100903.97;7391864;19;20440;-53
2023/09/01 04:43:51;;;;;;;11.27;3.60;;;;;;;10.70;100.00;100909.31;7367231;19;20333;-53
2023/09/01 04:46:21;;;;;;;9.73;3.47;;;;;;;10.72;100.00;100910.28;7391445;19;20373;-50
2023/09/01 04:48:50;;;;;;;8.73;3.20;;;;;;;10.72;100.00;100905.13;7367404;19;20753;-52
2023/09/01 04:51:21;;;;;;;7.28;2.90;;;;;;;10.72;100.00;100905.13;7391898;19;20377;-51
2023/09/01 04:53:51;;;;;;;9.88;4.07;;;;;;;10.73;100.00;100907.78;7367712;19;21104;-52
2023/09/01 04:56:23;;;;;;;8.57;3.20;;;;;;;10.74;100.00;100918.97;7392735;19;20364;-53
2023/09/01 04:58:53;;;;;;;5.70;3.03;;;;;;;10.74;100.00;100914.69;7367674;19;20881;-54
2023/09/01 05:01:22;;;;;;;10.90;4.25;;;;;;;10.82;100.00;100916.72;7390973;19;20440;-51
2023/09/01 05:03:52;;;;;;;8.60;3.60;;;;;;;10.86;100.00;100918.63;7366906;19;20343;-53
2023/09/01 05:06:22;;;;;;;11.65;5.03;;;;;;;10.93;100.00;100911.19;7392253;19;20366;-54
2023/09/01 05:08:51;;;;;;;10.48;4.25;;;;;;;10.96;100.00;100913.03;7367093;19;20404;-52
2023/09/01 05:11:24;;;;;;;10.23;5.40;;;;;;;11.01;100.00;100916.69;7392010;19;20383;-51
2023/09/01 05:13:53;;;;;;;10.80;4.90;;;;;;;11.02;100.00;100922.75;7367240;19;20878;-48
2023/09/01 05:16:23;;;;;;;6.77;2.77;;;;;;;10.99;100.00;100932.94;7391859;19;20900;-50
2023/09/01 05:18:52;;;;;;;9.98;3.50;;;;;;;11.01;100.00;100931.28;7367092;19;20867;-53
2023/09/01 05:21:22;;;;;;;11.13;5.40;;;;;;;11.05;100.00;100941.84;7391043;19;20372;-52
2023/09/01 05:23:51;;;;;;;7.32;2.85;;;;;;;11.10;100.00;100949.78;7366373;19;20337;-54
2023/09/01 05:26:24;;;;;;;7.37;3.50;;;;;;;11.10;100.00;100954.94;7389930;19;20433;-53
2023/09/01 05:28:53;;;;;;;7.78;2.95;;;;;;;11.12;100.00;100958.44;7367332;19;20324;-51
2023/09/01 05:31:23;;;;;;;8.20;3.13;;;;;;;11.19;100.00;100970.81;7390002;19;20360;-52
2023/09/01 05:33:53;;;;;;;8.85;3.20;;;;;;;11.24;100.00;100988.22;7366321;19;20888;-51
2023/09/01 05:36:22;;;;;;;5.60;2.53;;;;;;;11.24;100.00;100989.09;7392421;19;20356;-54
2023/09/01 05:38:52;;;;;;;10.77;2.95;;;;;;;11.29;100.00;100997.91;7373733;19;20408;-51
2023/09/01 05:41:24;;;;;;;9.32;2.70;;;;;;;11.31;100.00;101000.56;7396154;19;20476;-50
2023/09/01 05:43:53;;;;;;;8.57;2.60;;;;;;;11.33;100.00;100993.75;7372698;19;20905;-51
2023/09/01 05:46:23;;;;;;;7.65;2.80;;;;;;;11.37;100.00;101008.56;7399153;19;20440;-51
2023/09/01 05:48:53;;;;;;;8.40;3.50;;;;;;;11.41;100.00;101014.75;7373495;19;20351;-52
2023/09/01 05:51:22;;;;;;;7.75;2.75;;;;;;;11.46;100.00;101021.00;7396510;19;20444;-49
2023/09/01 05:53:52;;;;;;;8.57;3.33;;;;;;;11.51;100.00;101023.78;7373096;19;20388;-52
2023/09/01 05:56:24;;;;;;;11.38;3.75;;;;;;;11.64;100.00;101032.94;7395748;19;20368;-51
2023/09/01 05:58:53;;;;;;;9.25;3.00;;;;;;;11.63;100.00;101041.50;7373536;19;20352;-52
2023/09/01 06:01:23;;;;;;;8.90;2.80;;;;;;;11.59;100.00;101058.59;7396507;19;20360;-52
2023/09/01 06:03:53;;;;;;;6.35;2.60;;;;;;;11.63;100.00;101059.59;7372400;19;20333;-54
2023/09/01 06:06:22;;;;;;;8.13;3.03;;;;;;;11.68;100.00;101069.31;7398217;19;20356;-53
2023/09/01 06:08:52;;;;;;;5.90;2.40;;;;;;;11.69;100.00;101081.41;7373042;19;20343;-54
2023/09/01 06:11:24;;;;;;;5.57;2.63;;;;;;;11.69;100.00;101089.16;7395944;19;20371;-50
2023/09/01 06:13:54;;;;;;;7.30;2.40;;;;;;;11.70;100.00;101090.91;7372665;19;20416;-51
2023/09/01 06:16:25;;;;;;;19.33;10.80;;;;;;;11.85;100.00;101107.91;7395359;19;20363;-54
2023/09/01 06:18:55;;;;;;;6.47;2.70;;;;;;;11.85;100.00;101103.63;7372695;19;20876;-49
2023/09/01 06:21:24;;;;;;;6.78;2.60;;;;;;;11.90;100.00;101124.50;7395078;19;20364;-52
2023/09/01 06:23:54;;;;;;;4.50;2.30;;;;;;;11.98;100.00;101125.72;7371523;19;20758;-51
2023/09/01 06:26:26;;;;;;;7.00;2.90;;;;;;;12.07;100.00;101129.53;7394856;19;21092;-52
2023/09/01 06:28:56;;;;;;;6.22;2.20;;;;;;;12.06;100.00;101138.09;7371423;19;20483;-52
2023/09/01 06:31:25;;;;;;;7.90;2.60;;;;;;;12.17;100.00;101147.19;7394257;19;20388;-54
2023/09/01 06:33:55;;;;;;;8.20;2.72;;;;;;;12.25;100.00;101155.28;7370824;19;20337;-49
2023/09/01 06:36:25;;;;;;;8.70;3.50;;;;;;;12.39;100.00;101163.59;7395033;19;20360;-53
2023/09/01 06:38:54;;;;;;;6.97;2.67;;;;;;;12.43;100.00;101173.25;7370900;19;20341;-55
2023/09/01 06:41:26;;;;;;;5.57;2.53;;;;;;;12.47;100.00;101171.69;7395269;19;20377;-53
2023/09/01 06:43:56;;;;;;;6.07;2.30;;;;;;;12.58;100.00;101187.63;7368676;19;20890;-48
2023/09/01 06:46:25;;;;;;;9.65;4.03;;;;;;;12.66;100.00;101188.81;7389539;19;20364;-52
2023/09/01 06:48:55;;;;;;;4.72;2.35;;;;;;;12.76;100.00;101206.50;7368871;19;20403;-50
2023/09/01 06:51:25;;;;;;;5.60;2.95;;;;;;;12.75;100.00;101215.09;7394619;19;20454;-51
2023/09/01 06:53:54;;;;;;;7.97;4.00;;;;;;;12.80;100.00;101213.56;7371278;19;20339;-54
2023/09/01 06:56:27;;;;;;;7.18;2.92;;;;;;;12.89;100.00;101223.41;7394537;19;20960;-52
2023/09/01 06:58:56;;;;;;;6.97;2.60;;;;;;;12.90;100.00;101230.34;7369634;19;20932;-50
2023/09/01 07:01:27;;;;;;;8.00;3.40;;;;;;;13.00;100.00;101229.00;7394524;19;20444;-51
2023/09/01 07:03:57;;;;;;;7.68;2.75;;;;;;;13.11;100.00;101237.19;7370740;19;20324;-56
2023/09/01 07:06:27;;;;;;;12.52;5.00;;;;;;;13.13;100.00;101232.09;7392078;19;21063;-50
2023/09/01 07:08:56;;;;;;;10.00;3.10;;;;;;;13.03;100.00;101239.47;7366909;19;20400;-52
2023/09/01 07:11:28;;;;;;;5.30;2.00;;;;;;;13.01;100.00;101235.94;7392076;19;20368;-54
2023/09/01 07:13:58;;;;;;;6.28;2.00;;;;;;;13.18;100.00;101251.28;7371282;19;20349;-50
2023/09/01 07:16:28;;;;;;;6.30;2.80;;;;;;;13.24;100.00;101243.75;7392796;19;20365;-49
2023/09/01 07:18:57;;;;;;;16.25;7.38;;;;;;;13.41;100.00;101248.69;7370493;19;20328;-49
2023/09/01 07:21:27;;;;;;;36.38;18.50;;;;;;;13.56;100.00;101248.41;7393987;19;20371;-51
2023/09/01 07:23:56;;;;;;;24.35;12.63;;;;;;;13.58;100.00;101255.41;7369333;19;20340;-53
2023/09/01 07:26:28;;;;;;;17.43;8.20;;;;;;;13.64;100.00;101265.13;7393217;19;20419;-52
2023/09/01 07:28:58;;;;;;;13.40;4.97;;;;;;;13.74;100.00;101277.63;7370135;19;20335;-51
2023/09/01 07:31:28;;;;;;;30.52;15.23;;;;;;;13.88;100.00;101279.81;7393294;19;20372;-53
2023/09/01 07:33:57;;;;;;;20.75;9.10;;;;;;;13.97;100.00;101281.88;7368430;19;20350;-53
2023/09/01 07:36:27;;;;;;;28.17;14.95;;;;;;;14.09;100.00;101287.50;7392731;19;20900;-50
2023/09/01 07:38:56;;;;;;;14.55;6.72;;;;;;;14.15;100.00;101297.25;7369116;19;20332;-49
2023/09/01 07:41:29;;;;;;;19.38;9.10;;;;;;;14.25;100.00;101298.44;7393179;19;20373;-49
2023/09/01 07:43:58;;;;;;;10.10;3.47;;;;;;;14.29;100.00;101302.91;7369263;19;20329;-52
2023/09/01 07:46:33;;;;;;;18.38;8.98;;;;;;;14.22;100.00;101307.00;7392880;19;20433;-49
2023/09/01 07:49:03;;;;;;;36.97;19.60;;;;;;;14.34;100.00;101310.84;7369274;19;20332;-51
2023/09/01 07:51:32;;;;;;;21.52;10.32;;;;;;;14.39;100.00;101317.06;7392023;19;20372;-53
2023/09/01 07:54:02;;;;;;;16.03;8.30;;;;;;;14.43;100.00;101324.16;7369159;19;21211;-50
2023/09/01 07:56:34;;;;;;;60.53;32.78;;;;;;;14.53;100.00;101320.16;7391085;19;20368;-49
2023/09/01 07:59:04;;;;;;;21.87;11.80;;;;;;;14.52;100.00;101332.25;7368779;19;20353;-50
2023/09/01 08:01:33;;;;;;;21.23;9.15;;;;;;;14.55;100.00;101332.38;7390888;19;20372;-52
2023/09/01 08:04:03;;;;;;;15.18;6.22;;;;;;;14.63;100.00;101353.41;7369075;19;20333;-54
2023/09/01 08:06:33;;;;;;;16.75;7.15;;;;;;;14.70;100.00;101355.38;7391411;19;20987;-49
2023/09/01 08:09:03;;;;;;;10.10;4.53;;;;;;;14.78;100.00;101362.59;7368679;19;20726;-53
2023/09/01 08:11:35;;;;;;;12.25;4.68;;;;;;;14.93;100.00;101363.09;7391271;19;20383;-52
2023/09/01 08:14:05;;;;;;;21.88;10.52;;;;;;;15.00;100.00;101371.97;7368686;19;20345;-52
2023/09/01 08:16:34;;;;;;;9.48;4.18;;;;;;;15.14;100.00;101377.66;7391330;19;20472;-48
2023/09/01 08:19:04;;;;;;;18.65;10.32;;;;;;;15.21;100.00;101374.41;7368198;19;20329;-50
2023/09/01 08:21:34;;;;;;;22.05;10.77;;;;;;;15.29;100.00;101389.38;7391987;19;20360;-53
2023/09/01 08:24:04;;;;;;;17.58;7.75;;;;;;;15.35;100.00;101381.75;7368481;19;20329;-51
2023/09/01 08:26:38;;;;;;;37.60;19.45;;;;;;;15.41;100.00;101388.88;7391955;19;20360;-50
2023/09/01 08:29:08;;;;;;;16.97;8.27;;;;;;;15.57;100.00;101390.22;7368384;19;20321;-50
2023/09/01 08:31:38;;;;;;;29.88;14.98;;;;;;;15.64;100.00;101400.88;7389910;19;20526;-52
2023/09/01 08:34:10;;;;;;;15.02;4.25;;;;;;;15.78;100.00;101396.09;7368179;19;20340;-54
2023/09/01 08:36:40;;;;;;;8.93;3.40;;;;;;;15.80;100.00;101407.44;7389020;19;20360;-53
2023/09/01 08:39:10;;;;;;;5.40;2.17;;;;;;;15.79;100.00;101408.28;7369700;19;20384;-49
2023/09/01 08:41:43;;;;;;;16.50;8.18;;;;;;;15.82;100.00;101415.28;7390761;19;20900;-52
2023/09/01 08:44:14;;;;;;;7.47;2.00;;;;;;;15.88;100.00;101420.69;7369817;19;20424;-51
2023/09/01 08:46:44;;;;;;;16.95;8.48;;;;;;;16.13;100.00;101423.16;7390631;19;20428;-53
2023/09/01 08:49:17;;;;;;;6.70;2.70;;;;;;;16.20;100.00;101425.09;7369822;19;20368;-53
2023/09/01 08:51:49;;;;;;;5.95;2.80;;;;;;;16.21;100.00;101426.91;7368171;19;20360;-48
2023/09/01 08:54:20;;;;;;;10.60;5.15;;;;;;;16.28;100.00;101428.84;7389664;19;20360;-49
2023/09/01 08:56:52;;;;;;;29.25;16.48;;;;;;;16.46;100.00;101440.63;7366176;19;20778;-49
2023/09/01 08:59:24;;;;;;;35.20;18.98;;;;;;;16.60;100.00;101443.59;7389972;19;20897;-47
2023/09/01 09:01:53;;;;;;;7.53;2.58;;;;;;;16.85;100.00;101454.69;7366983;19;20368;-49
2023/09/01 09:04:23;;;;;;;47.10;25.63;;;;;;;16.89;100.00;101451.31;7391805;19;20360;-50
2023/09/01 09:06:53;;;;;;;24.55;13.35;;;;;;;17.00;100.00;101449.91;7365584;19;20373;-53
2023/09/01 09:09:22;;;;;;;47.60;25.40;;;;;;;16.63;100.00;101463.63;7389853;19;20435;-48
2023/09/01 09:12:02;;;;;;;8.45;4.03;;;;;;;16.82;100.00;101460.69;7364016;19;20885;-52
2023/09/01 09:14:49;;;;;;;19.30;9.52;;;;;;;16.88;100.00;101463.47;7388526;19;20371;-55
2023/09/01 09:17:43;;;;;;;7.82;2.33;;;;;;;16.66;100.00;101472.41;7367118;19;20317;-53
2023/09/01 09:20:14;;;;;;;16.08;8.02;;;;;;;16.58;100.00;101471.31;7389315;19;20352;-51
2023/09/01 09:22:54;;;;;;;28.23;15.98;;;;;;;16.45;100.00;101481.41;7365675;19;20458;-50
2023/09/01 09:25:28;;;;;;;33.20;17.55;;;;;;;16.17;100.00;101479.69;7389478;19;20424;-53
2023/09/01 09:28:02;;;;;;;15.85;7.50;;;;;;;16.37;100.00;101477.69;7365518;19;20342;-52
2023/09/01 09:30:32;;;;;;;19.05;8.80;;;;;;;16.60;100.00;101475.75;7389048;19;20907;-51
2023/09/01 09:33:04;;;;;;;8.60;3.65;;;;;;;16.62;100.00;101478.41;7365603;19;20755;-52
2023/09/01 09:35:35;;;;;;;12.10;4.60;;;;;;;16.56;100.00;101476.47;7390142;19;20704;-46
2023/09/01 09:38:05;;;;;;;5.80;2.45;;;;;;;16.72;100.00;101458.69;7366153;19;20400;-50
2023/09/01 09:40:35;;;;;;;36.10;19.80;;;;;;;16.66;100.00;101461.13;7388232;19;20341;-49
2023/09/01 09:43:10;;;;;;;25.88;13.68;;;;;;;16.59;100.00;101468.78;7365561;19;20341;-50
2023/09/01 09:45:40;;;;;;;23.00;11.47;;;;;;;16.70;100.00;101476.00;7387858;19;20368;-51
2023/09/01 09:48:10;;;;;;;17.80;8.95;;;;;;;16.95;100.00;101471.44;7363803;19;20332;-52
2023/09/01 09:50:41;;;;;;;14.50;5.68;;;;;;;17.10;100.00;101471.91;7389641;19;20366;-48
2023/09/01 09:53:11;;;;;;;25.55;13.63;;;;;;;17.09;100.00;101471.84;7365251;19;20357;-50
2023/09/01 09:55:45;;;;;;;14.00;6.63;;;;;;;17.40;100.00;101472.63;7387148;19;20364;-53
2023/09/01 09:58:20;;;;;;;47.22;25.77;;;;;;;17.23;100.00;101465.25;7364963;19;20815;-52
2023/09/01 10:00:53;;;;;;;69.72;36.03;;;;;;;17.55;100.00;101474.75;7388601;19;20871;-54
2023/09/01 10:03:24;;;;;;;17.80;6.93;;;;;;;17.72;100.00;101472.53;7365814;19;20415;-51
2023/09/01 10:05:55;;;;;;;11.25;4.47;;;;;;;17.91;100.00;101478.19;7387926;19;20368;-49
2023/09/01 10:08:25;;;;;;;45.00;24.92;;;;;;;17.82;100.00;101442.31;7365453;19;20870;-53
2023/09/01 10:10:55;;;;;;;20.08;8.23;;;;;;;18.06;100.00;101456.78;7388315;19;20373;-52
2023/09/01 10:13:27;;;;;;;32.20;17.30;;;;;;;18.14;100.00;101426.50;7364823;19;20401;-51
2023/09/01 10:15:58;;;;;;;12.50;6.20;;;;;;;18.09;100.00;101402.00;7387461;19;20356;-53
2023/09/01 10:18:27;;;;;;;4.28;1.70;;;;;;;17.82;100.00;101416.22;7365483;19;20348;-52
2023/09/01 10:20:57;;;;;;;4.38;1.48;;;;;;;17.45;100.00;101413.66;7389133;19;20936;-54
2023/09/01 10:23:27;;;;;;;8.77;3.92;;;;;;;17.19;100.00;101454.72;7367850;19;20325;-51
2023/09/01 10:26:16;;;;;;;3.90;1.90;;;;;;;17.24;100.00;101476.59;7394785;19;20358;-52
2023/09/01 10:29:00;;;;;;;14.90;7.45;;;;;;;17.28;100.00;101454.97;7371729;19;20334;-52
2023/09/01 10:31:30;;;;;;;17.87;8.60;;;;;;;17.62;100.00;101445.34;7395106;19;20367;-52
2023/09/01 10:34:07;;;;;;;13.23;6.45;;;;;;;17.83;100.00;101431.03;7372176;19;20445;-50
2023/09/01 10:36:38;;;;;;;4.70;1.45;;;;;;;17.98;100.00;101395.66;7393777;19;20357;-51
2023/09/01 10:39:24;;;;;;;8.25;3.50;;;;;;;18.13;100.00;101343.81;7371935;19;20340;-54
2023/09/01 10:41:55;;;;;;;63.00;34.72;;;;;;;18.03;100.00;101357.47;7371011;19;20377;-49
2023/09/01 10:45:02;;;;;;;3.60;1.70;;;;;;;18.40;100.00;101337.34;7396026;19;20375;-50
2023/09/01 10:47:45;;;;;;;38.88;21.05;;;;;;;18.21;100.00;101302.19;7367777;19;20353;-48
2023/09/01 10:50:16;;;;;;;30.77;16.63;;;;;;;18.17;100.00;101256.84;7393082;19;20361;-53
2023/09/01 10:52:46;;;;;;;23.35;12.45;;;;;;;18.19;100.00;101229.03;7371484;19;20313;-52
2023/09/01 10:55:16;;;;;;;25.60;14.73;;;;;;;18.27;100.00;101183.88;7393470;19;20910;-52
2023/09/01 10:57:49;;;;;;;30.38;16.52;;;;;;;18.11;100.00;101154.91;7370290;19;20328;-53
2023/09/01 11:00:32;;;;;;;8.57;4.07;;;;;;;18.19;100.00;101113.25;7395796;19;20391;-54
2023/09/01 11:03:30;;;;;;;4.32;1.58;;;;;;;18.68;100.00;101133.13;7370351;19;20328;-52
2023/09/01 11:06:01;;;;;;;12.68;6.85;;;;;;;18.68;100.00;101068.69;7393393;19;20352;-51
2023/09/01 11:08:31;;;;;;;11.40;5.10;;;;;;;18.56;100.00;101022.34;7368324;19;20416;-48
2023/09/01 11:11:09;;;;;;;29.38;15.93;;;;;;;18.79;100.00;100977.34;7393980;19;20368;-53
2023/09/01 11:13:39;;;;;;;8.32;3.65;;;;;;;18.42;100.00;101001.31;7369649;19;20367;-48
2023/09/01 11:16:14;;;;;;;16.92;9.48;;;;;;;18.70;100.00;101011.19;7392996;19;20780;-51
2023/09/01 11:18:46;;;;;;;12.32;6.38;;;;;;;18.95;100.00;100990.56;7370187;19;20402;-49
2023/09/01 11:21:15;;;;;;;36.70;21.35;;;;;;;18.74;100.00;100942.44;7393669;19;20372;-52
2023/09/01 11:23:48;;;;;;;50.30;28.45;;;;;;;18.83;100.00;100987.00;7370017;19;20329;-51
2023/09/01 11:26:18;;;;;;;46.13;25.70;;;;;;;18.83;100.00;100996.56;7393199;19;20367;-54
2023/09/01 11:28:48;;;;;;;25.50;14.20;;;;;;;18.63;100.00;101033.78;7369261;19;20346;-53
2023/09/01 11:31:20;;;;;;;10.18;4.75;;;;;;;18.80;100.00;101043.53;7394023;19;20456;-54